sensor_id;sensor_type;location;lat;lon;timestamp;pressure;altitude;pressure_sealevel;temperature;humidity
20444;BME280;10381;53.730;10.010;2023-04-06T00:03:31;101626.66;;;-3.69;100.00
20444;BME280;10381;53.730;10.010;2023-04-06T00:07:33;101623.56;;;-3.36;100.00
20444;BME280;10381;53.730;10.010;2023-04-06T00:11:34;101617.78;;;-3.52;100.00
20444;BME280;10381;53.730;10.010;2023-04-06T00:15:34;101617.00;;;-3.59;100.00
20444;BME280;10381;53.730;10.010;2023-04-06T00:19:34;101615.63;;;-2.81;100.00
20444;BME280;10381;53.730;10.010;2023-04-06T00:23:35;101609.78;;;-2.92;100.00
20444;BME280;10381;53.730;10.010;2023-04-06T00:27:35;101611.19;;;-2.74;100.00
20444;BME280;10381;53.730;10.010;2023-04-06T00:31:36;101605.41;;;-2.88;100.00
20444;BME280;10381;53.730;10.010;2023-04-06T00:35:36;101595.78;;;-3.30;100.00
20444;BME280;10381;53.730;10.010;2023-04-06T00:39:36;101602.78;;;-3.33;100.00
20444;BME280;10381;53.730;10.010;2023-04-06T00:43:37;101598.19;;;-3.69;100.00
20444;BME280;10381;53.730;10.010;2023-04-06T00:47:37;101595.59;;;-3.67;100.00
20444;BME280;10381;53.730;10.010;2023-04-06T00:51:37;101591.88;;;-3.54;100.00
20444;BME280;10381;53.730;10.010;2023-04-06T00:55:38;101587.75;;;-3.14;100.00
20444;BME280;10381;53.730;10.010;2023-04-06T00:59:39;101588.84;;;-2.81;100.00
20444;BME280;10381;53.730;10.010;2023-04-06T01:03:40;101578.41;;;-2.80;100.00
20444;BME280;10381;53.730;10.010;2023-04-06T01:07:42;101577.69;;;-2.86;100.00
20444;BME280;10381;53.730;10.010;2023-04-06T01:11:42;101570.72;;;-3.28;100.00
20444;BME280;10381;53.730;10.010;2023-04-06T01:15:43;101568.75;;;-3.63;100.00
20444;BME280;10381;53.730;10.010;2023-04-06T01:19:43;101570.88;;;-3.88;100.00
20444;BME280;10381;53.730;10.010;2023-04-06T01:23:45;101567.03;;;-3.64;100.00
20444;BME280;10381;53.730;10.010;2023-04-06T01:27:48;101563.84;;;-3.29;100.00
20444;BME280;10381;53.730;10.010;2023-04-06T01:31:48;101568.94;;;-3.24;100.00
20444;BME280;10381;53.730;10.010;2023-04-06T01:35:48;101568.31;;;-3.38;100.00
20444;BME280;10381;53.730;10.010;2023-04-06T01:39:50;101559.91;;;-3.51;100.00
20444;BME280;10381;53.730;10.010;2023-04-06T01:43:50;101573.19;;;-3.22;100.00
20444;BME280;10381;53.730;10.010;2023-04-06T01:47:54;101572.75;;;-2.98;100.00
20444;BME280;10381;53.730;10.010;2023-04-06T01:51:55;101561.25;;;-2.85;100.00
20444;BME280;10381;53.730;10.010;2023-04-06T01:55:55;101564.44;;;-3.16;100.00
20444;BME280;10381;53.730;10.010;2023-04-06T01:59:55;101559.13;;;-3.55;100.00
20444;BME280;10381;53.730;10.010;2023-04-06T02:03:56;101561.84;;;-3.64;100.00
20444;BME280;10381;53.730;10.010;2023-04-06T02:07:56;101556.38;;;-3.46;100.00
20444;BME280;10381;53.730;10.010;2023-04-06T02:11:57;101551.97;;;-3.42;100.00
20444;BME280;10381;53.730;10.010;2023-04-06T02:15:57;101552.72;;;-3.35;100.00
20444;BME280;10381;53.730;10.010;2023-04-06T02:19:57;101548.13;;;-3.19;100.00
20444;BME280;10381;53.730;10.010;2023-04-06T02:23:58;101553.25;;;-3.18;100.00
20444;BME280;10381;53.730;10.010;2023-04-06T02:27:58;101552.41;;;-3.20;100.00
20444;BME280;10381;53.730;10.010;2023-04-06T02:31:58;101548.94;;;-3.17;100.00
20444;BME280;10381;53.730;10.010;2023-04-06T02:35:59;101543.53;;;-3.07;100.00
20444;BME280;10381;53.730;10.010;2023-04-06T02:39:59;101552.00;;;-2.98;100.00
20444;BME280;10381;53.730;10.010;2023-04-06T02:43:59;101551.91;;;-2.92;100.00
20444;BME280;10381;53.730;10.010;2023-04-06T02:48:00;101551.66;;;-2.80;100.00
20444;BME280;10381;53.730;10.010;2023-04-06T02:52:00;101557.59;;;-2.75;100.00
20444;BME280;10381;53.730;10.010;2023-04-06T02:56:00;101556.75;;;-2.77;100.00
20444;BME280;10381;53.730;10.010;2023-04-06T03:00:01;101568.69;;;-2.67;100.00
20444;BME280;10381;53.730;10.010;2023-04-06T03:04:02;101557.22;;;-2.58;100.00
20444;BME280;10381;53.730;10.010;2023-04-06T03:08:02;101552.84;;;-2.54;100.00
20444;BME280;10381;53.730;10.010;2023-04-06T03:12:03;101557.88;;;-2.48;100.00
20444;BME280;10381;53.730;10.010;2023-04-06T03:16:04;101554.47;;;-2.50;100.00
20444;BME280;10381;53.730;10.010;2023-04-06T03:20:04;101551.00;;;-2.49;100.00
20444;BME280;10381;53.730;10.010;2023-04-06T03:24:05;101558.72;;;-2.48;100.00
20444;BME280;10381;53.730;10.010;2023-04-06T03:28:06;101559.91;;;-2.63;100.00
20444;BME280;10381;53.730;10.010;2023-04-06T03:32:06;101549.41;;;-2.98;100.00
20444;BME280;10381;53.730;10.010;2023-04-06T03:36:07;101550.28;;;-3.45;100.00
20444;BME280;10381;53.730;10.010;2023-04-06T03:40:07;101550.81;;;-3.74;100.00
20444;BME280;10381;53.730;10.010;2023-04-06T03:44:08;101553.88;;;-4.03;100.00
20444;BME280;10381;53.730;10.010;2023-04-06T03:48:08;101554.97;;;-4.19;100.00
20444;BME280;10381;53.730;10.010;2023-04-06T03:52:08;101556.75;;;-4.23;100.00
20444;BME280;10381;53.730;10.010;2023-04-06T03:56:09;101564.66;;;-4.34;100.00
20444;BME280;10381;53.730;10.010;2023-04-06T04:00:10;101557.88;;;-4.41;100.00
20444;BME280;10381;53.730;10.010;2023-04-06T04:04:11;101561.94;;;-4.24;100.00
20444;BME280;10381;53.730;10.010;2023-04-06T04:08:11;101569.75;;;-3.70;100.00
20444;BME280;10381;53.730;10.010;2023-04-06T04:12:11;101571.72;;;-3.84;100.00
20444;BME280;10381;53.730;10.010;2023-04-06T04:16:12;101561.94;;;-4.24;100.00
20444;BME280;10381;53.730;10.010;2023-04-06T04:20:12;101570.34;;;-4.09;100.00
20444;BME280;10381;53.730;10.010;2023-04-06T04:24:13;101566.81;;;-4.04;100.00
20444;BME280;10381;53.730;10.010;2023-04-06T04:28:13;101572.91;;;-4.07;100.00
20444;BME280;10381;53.730;10.010;2023-04-06T04:32:14;101573.16;;;-4.24;100.00
20444;BME280;10381;53.730;10.010;2023-04-06T04:36:14;101568.22;;;-4.41;100.00
20444;BME280;10381;53.730;10.010;2023-04-06T04:40:15;101573.16;;;-4.24;100.00
20444;BME280;10381;53.730;10.010;2023-04-06T04:44:16;101578.72;;;-3.91;100.00
20444;BME280;10381;53.730;10.010;2023-04-06T04:48:17;101577.25;;;-4.09;100.00
20444;BME280;10381;53.730;10.010;2023-04-06T04:52:17;101575.34;;;-3.96;100.00
20444;BME280;10381;53.730;10.010;2023-04-06T04:56:17;101576.25;;;-3.99;100.00
20444;BME280;10381;53.730;10.010;2023-04-06T05:00:18;101570.09;;;-3.93;100.00
20444;BME280;10381;53.730;10.010;2023-04-06T05:04:19;101577.50;;;-3.70;100.00
20444;BME280;10381;53.730;10.010;2023-04-06T05:08:19;101581.88;;;-3.24;100.00
20444;BME280;10381;53.730;10.010;2023-04-06T05:12:20;101580.56;;;-2.57;100.00
20444;BME280;10381;53.730;10.010;2023-04-06T05:16:20;101588.06;;;-1.68;100.00
20444;BME280;10381;53.730;10.010;2023-04-06T05:20:21;101589.44;;;-1.55;100.00
20444;BME280;10381;53.730;10.010;2023-04-06T05:24:21;101583.81;;;-1.38;100.00
20444;BME280;10381;53.730;10.010;2023-04-06T05:28:22;101571.75;;;-0.76;100.00
20444;BME280;10381;53.730;10.010;2023-04-06T05:32:22;101579.81;;;-1.17;100.00
20444;BME280;10381;53.730;10.010;2023-04-06T05:36:25;101582.56;;;-1.56;100.00
20444;BME280;10381;53.730;10.010;2023-04-06T05:40:26;101576.59;;;-1.26;100.00
20444;BME280;10381;53.730;10.010;2023-04-06T05:44:26;101575.78;;;-0.66;100.00
20444;BME280;10381;53.730;10.010;2023-04-06T05:48:27;101573.13;;;-0.35;100.00
20444;BME280;10381;53.730;10.010;2023-04-06T05:52:27;101577.53;;;0.96;100.00
20444;BME280;10381;53.730;10.010;2023-04-06T05:56:27;101568.22;;;0.64;100.00
20444;BME280;10381;53.730;10.010;2023-04-06T06:00:29;101580.09;;;1.68;100.00
20444;BME280;10381;53.730;10.010;2023-04-06T06:04:30;101566.69;;;1.07;100.00
20444;BME280;10381;53.730;10.010;2023-04-06T06:08:30;101571.19;;;1.51;100.00
20444;BME280;10381;53.730;10.010;2023-04-06T06:12:31;101549.47;;;0.53;100.00
20444;BME280;10381;53.730;10.010;2023-04-06T06:16:31;101550.75;;;0.66;100.00
20444;BME280;10381;53.730;10.010;2023-04-06T06:20:32;101542.25;;;0.61;100.00
20444;BME280;10381;53.730;10.010;2023-04-06T06:24:32;101539.16;;;0.75;100.00
20444;BME280;10381;53.730;10.010;2023-04-06T06:28:33;101544.13;;;1.06;100.00
20444;BME280;10381;53.730;10.010;2023-04-06T06:32:33;101532.97;;;1.01;100.00
20444;BME280;10381;53.730;10.010;2023-04-06T06:36:33;101532.91;;;1.27;100.00
20444;BME280;10381;53.730;10.010;2023-04-06T06:40:35;101530.41;;;1.46;100.00
20444;BME280;10381;53.730;10.010;2023-04-06T06:44:35;101532.16;;;1.69;100.00
20444;BME280;10381;53.730;10.010;2023-04-06T06:48:35;101533.78;;;1.94;100.00
20444;BME280;10381;53.730;10.010;2023-04-06T06:52:36;101527.16;;;2.07;100.00
20444;BME280;10381;53.730;10.010;2023-04-06T06:56:36;101530.69;;;2.68;100.00
20444;BME280;10381;53.730;10.010;2023-04-06T07:00:38;101529.06;;;2.65;100.00
20444;BME280;10381;53.730;10.010;2023-04-06T07:04:38;101529.66;;;2.72;100.00
20444;BME280;10381;53.730;10.010;2023-04-06T07:08:38;101525.22;;;3.32;100.00
20444;BME280;10381;53.730;10.010;2023-04-06T07:12:39;101524.53;;;3.46;100.00
20444;BME280;10381;53.730;10.010;2023-04-06T07:16:39;101531.19;;;3.53;100.00
20444;BME280;10381;53.730;10.010;2023-04-06T07:20:41;101527.25;;;3.63;100.00
20444;BME280;10381;53.730;10.010;2023-04-06T07:24:41;101525.16;;;3.70;100.00
20444;BME280;10381;53.730;10.010;2023-04-06T07:28:41;101524.63;;;4.17;100.00
20444;BME280;10381;53.730;10.010;2023-04-06T07:32:42;101528.63;;;4.24;100.00
20444;BME280;10381;53.730;10.010;2023-04-06T07:36:42;101521.00;;;4.88;100.00
20444;BME280;10381;53.730;10.010;2023-04-06T07:40:42;101524.56;;;5.20;100.00
20444;BME280;10381;53.730;10.010;2023-04-06T07:44:43;101520.09;;;5.05;100.00
20444;BME280;10381;53.730;10.010;2023-04-06T07:48:43;101523.59;;;5.21;100.00
20444;BME280;10381;53.730;10.010;2023-04-06T07:52:43;101518.56;;;5.34;100.00
20444;BME280;10381;53.730;10.010;2023-04-06T07:56:44;101515.41;;;5.59;100.00
20444;BME280;10381;53.730;10.010;2023-04-06T08:00:44;101521.66;;;6.04;100.00
20444;BME280;10381;53.730;10.010;2023-04-06T08:04:44;101521.03;;;6.15;100.00
20444;BME280;10381;53.730;10.010;2023-04-06T08:08:45;101523.66;;;6.15;100.00
20444;BME280;10381;53.730;10.010;2023-04-06T08:12:45;101520.53;;;6.38;100.00
20444;BME280;10381;53.730;10.010;2023-04-06T08:16:45;101520.06;;;6.46;100.00
20444;BME280;10381;53.730;10.010;2023-04-06T08:20:46;101520.66;;;7.37;100.00
20444;BME280;10381;53.730;10.010;2023-04-06T08:24:46;101520.03;;;6.62;96.61
20444;BME280;10381;53.730;10.010;2023-04-06T08:28:47;101513.25;;;6.87;94.61
20444;BME280;10381;53.730;10.010;2023-04-06T08:32:47;101506.97;;;7.45;93.33
20444;BME280;10381;53.730;10.010;2023-04-06T08:36:47;101509.28;;;7.64;85.85
20444;BME280;10381;53.730;10.010;2023-04-06T08:40:48;101519.81;;;7.37;82.42
20444;BME280;10381;53.730;10.010;2023-04-06T08:44:51;101502.97;;;7.39;85.91
20444;BME280;10381;53.730;10.010;2023-04-06T08:48:52;101508.84;;;7.57;83.71
20444;BME280;10381;53.730;10.010;2023-04-06T08:52:52;101512.09;;;7.75;78.20
20444;BME280;10381;53.730;10.010;2023-04-06T08:56:53;101502.94;;;7.81;83.27
20444;BME280;10381;53.730;10.010;2023-04-06T09:00:54;101503.34;;;8.15;81.16
20444;BME280;10381;53.730;10.010;2023-04-06T09:04:54;101512.66;;;7.93;75.55
20444;BME280;10381;53.730;10.010;2023-04-06T09:08:55;101508.25;;;7.66;76.39
20444;BME280;10381;53.730;10.010;2023-04-06T09:13:05;101508.84;;;7.57;76.39
20444;BME280;10381;53.730;10.010;2023-04-06T09:17:06;101499.91;;;7.87;77.44
20444;BME280;10381;53.730;10.010;2023-04-06T09:21:07;101500.91;;;8.11;75.82
20444;BME280;10381;53.730;10.010;2023-04-06T09:25:08;101496.91;;;8.19;76.42
20444;BME280;10381;53.730;10.010;2023-04-06T09:29:09;101489.47;;;7.98;73.63
20444;BME280;10381;53.730;10.010;2023-04-06T09:33:10;101496.34;;;8.53;75.04
20444;BME280;10381;53.730;10.010;2023-04-06T09:37:17;101492.72;;;8.42;70.25
20444;BME280;10381;53.730;10.010;2023-04-06T09:41:36;101487.66;;;9.03;70.29
20444;BME280;10381;53.730;10.010;2023-04-06T09:45:37;101482.91;;;8.82;67.12
20444;BME280;10381;53.730;10.010;2023-04-06T09:49:37;101484.19;;;8.77;66.46
20444;BME280;10381;53.730;10.010;2023-04-06T09:53:41;101480.91;;;8.60;65.59
20444;BME280;10381;53.730;10.010;2023-04-06T09:58:21;101477.84;;;8.79;65.01
20444;BME280;10381;53.730;10.010;2023-04-06T10:02:20;101462.91;;;9.16;67.45
20444;BME280;10381;53.730;10.010;2023-04-06T10:06:25;101463.88;;;9.39;66.60
20444;BME280;10381;53.730;10.010;2023-04-06T10:10:30;101462.84;;;9.29;64.00
20444;BME280;10381;53.730;10.010;2023-04-06T10:14:34;101465.19;;;9.21;61.84
20444;BME280;10381;53.730;10.010;2023-04-06T10:18:39;101470.44;;;9.34;63.39
20444;BME280;10381;53.730;10.010;2023-04-06T10:22:51;101467.31;;;9.16;62.12
20444;BME280;10381;53.730;10.010;2023-04-06T10:26:58;101472.63;;;9.40;62.83
20444;BME280;10381;53.730;10.010;2023-04-06T10:31:00;101471.66;;;9.17;61.91
20444;BME280;10381;53.730;10.010;2023-04-06T10:35:08;101463.53;;;9.44;65.17
20444;BME280;10381;53.730;10.010;2023-04-06T10:39:08;101467.91;;;9.56;64.28
20444;BME280;10381;53.730;10.010;2023-04-06T10:43:14;101473.69;;;9.74;64.34
20444;BME280;10381;53.730;10.010;2023-04-06T10:47:18;101458.47;;;9.65;63.78
20444;BME280;10381;53.730;10.010;2023-04-06T10:51:19;101453.56;;;9.96;64.58
20444;BME280;10381;53.730;10.010;2023-04-06T10:55:25;101450.59;;;10.12;63.93
20444;BME280;10381;53.730;10.010;2023-04-06T10:59:28;101450.38;;;10.26;61.45
20444;BME280;10381;53.730;10.010;2023-04-06T11:03:28;101446.72;;;10.40;59.38
20444;BME280;10381;53.730;10.010;2023-04-06T11:07:29;101447.19;;;10.45;59.90
20444;BME280;10381;53.730;10.010;2023-04-06T11:11:30;101432.16;;;10.57;58.09
20444;BME280;10381;53.730;10.010;2023-04-06T11:15:34;101431.31;;;10.56;57.88
20444;BME280;10381;53.730;10.010;2023-04-06T11:19:34;101437.31;;;10.36;58.91
20444;BME280;10381;53.730;10.010;2023-04-06T11:23:34;101422.38;;;10.46;58.59
20444;BME280;10381;53.730;10.010;2023-04-06T11:27:35;101418.88;;;10.45;57.70
20444;BME280;10381;53.730;10.010;2023-04-06T11:31:47;101418.19;;;10.55;58.95
20444;BME280;10381;53.730;10.010;2023-04-06T11:35:48;101426.00;;;10.90;57.28
20444;BME280;10381;53.730;10.010;2023-04-06T11:39:50;101419.13;;;10.65;56.56
20444;BME280;10381;53.730;10.010;2023-04-06T11:43:51;101428.28;;;10.95;56.76
20444;BME280;10381;53.730;10.010;2023-04-06T11:47:59;101422.22;;;11.04;56.67
20444;BME280;10381;53.730;10.010;2023-04-06T11:52:00;101414.19;;;10.83;56.45
20444;BME280;10381;53.730;10.010;2023-04-06T11:56:01;101409.00;;;10.70;56.49
20444;BME280;10381;53.730;10.010;2023-04-06T12:00:02;101417.94;;;10.69;56.17
20444;BME280;10381;53.730;10.010;2023-04-06T12:04:02;101395.72;;;11.04;56.90
20444;BME280;10381;53.730;10.010;2023-04-06T12:08:03;101401.31;;;10.90;57.19
20444;BME280;10381;53.730;10.010;2023-04-06T12:12:03;101408.97;;;11.04;57.34
20444;BME280;10381;53.730;10.010;2023-04-06T12:16:04;101396.81;;;11.01;55.89
20444;BME280;10381;53.730;10.010;2023-04-06T12:20:05;101399.47;;;11.45;54.24
20444;BME280;10381;53.730;10.010;2023-04-06T12:24:05;101398.50;;;11.14;53.66
20444;BME280;10381;53.730;10.010;2023-04-06T12:28:06;101392.63;;;11.63;54.30
20444;BME280;10381;53.730;10.010;2023-04-06T12:32:06;101393.81;;;11.70;53.85
20444;BME280;10381;53.730;10.010;2023-04-06T12:36:14;101393.41;;;11.54;56.26
20444;BME280;10381;53.730;10.010;2023-04-06T12:40:15;101389.66;;;11.89;54.63
20444;BME280;10381;53.730;10.010;2023-04-06T12:44:16;101386.53;;;12.05;54.73
20444;BME280;10381;53.730;10.010;2023-04-06T12:48:16;101389.56;;;11.79;54.12
20444;BME280;10381;53.730;10.010;2023-04-06T12:52:16;101387.94;;;12.09;52.92
20444;BME280;10381;53.730;10.010;2023-04-06T12:56:18;101372.00;;;12.30;53.50
20444;BME280;10381;53.730;10.010;2023-04-06T13:00:19;101368.91;;;11.62;52.16
20444;BME280;10381;53.730;10.010;2023-04-06T13:04:20;101364.41;;;11.62;53.22
20444;BME280;10381;53.730;10.010;2023-04-06T13:08:20;101367.31;;;11.59;53.67
20444;BME280;10381;53.730;10.010;2023-04-06T13:12:21;101364.59;;;12.03;51.27
20444;BME280;10381;53.730;10.010;2023-04-06T13:16:21;101370.13;;;11.79;52.13
20444;BME280;10381;53.730;10.010;2023-04-06T13:20:21;101353.97;;;11.49;52.69
20444;BME280;10381;53.730;10.010;2023-04-06T13:24:22;101361.44;;;11.56;52.91
20444;BME280;10381;53.730;10.010;2023-04-06T13:28:23;101350.78;;;12.09;54.25
20444;BME280;10381;53.730;10.010;2023-04-06T13:32:23;101343.59;;;12.30;53.86
20444;BME280;10381;53.730;10.010;2023-04-06T13:36:23;101345.28;;;12.01;53.35
20444;BME280;10381;53.730;10.010;2023-04-06T13:40:24;101340.03;;;11.89;50.52
20444;BME280;10381;53.730;10.010;2023-04-06T13:44:25;101343.09;;;12.36;53.49
20444;BME280;10381;53.730;10.010;2023-04-06T13:48:26;101335.00;;;12.48;52.98
20444;BME280;10381;53.730;10.010;2023-04-06T13:52:26;101336.50;;;12.41;52.77
20444;BME280;10381;53.730;10.010;2023-04-06T13:56:26;101336.88;;;12.26;50.83
20444;BME280;10381;53.730;10.010;2023-04-06T14:00:27;101329.09;;;12.04;53.33
20444;BME280;10381;53.730;10.010;2023-04-06T14:04:27;101336.09;;;12.45;50.80
20444;BME280;10381;53.730;10.010;2023-04-06T14:08:28;101325.97;;;12.70;50.02
20444;BME280;10381;53.730;10.010;2023-04-06T14:12:28;101321.34;;;12.72;50.66
20444;BME280;10381;53.730;10.010;2023-04-06T14:16:29;101314.81;;;12.35;51.07
20444;BME280;10381;53.730;10.010;2023-04-06T14:20:32;101317.75;;;12.02;50.65
20444;BME280;10381;53.730;10.010;2023-04-06T14:24:32;101316.13;;;12.10;50.50
20444;BME280;10381;53.730;10.010;2023-04-06T14:28:33;101306.84;;;12.05;51.12
20444;BME280;10381;53.730;10.010;2023-04-06T14:32:34;101311.69;;;12.21;50.83
20444;BME280;10381;53.730;10.010;2023-04-06T14:36:36;101321.19;;;12.54;51.71
20444;BME280;10381;53.730;10.010;2023-04-06T14:40:37;101316.47;;;12.87;50.83
20444;BME280;10381;53.730;10.010;2023-04-06T14:44:38;101318.16;;;12.78;51.83
20444;BME280;10381;53.730;10.010;2023-04-06T14:48:42;101299.19;;;12.42;50.72
20444;BME280;10381;53.730;10.010;2023-04-06T14:52:43;101311.44;;;12.33;50.35
20444;BME280;10381;53.730;10.010;2023-04-06T14:56:43;101313.94;;;12.66;51.03
20444;BME280;10381;53.730;10.010;2023-04-06T15:00:44;101306.53;;;12.79;51.04
20444;BME280;10381;53.730;10.010;2023-04-06T15:04:44;101300.50;;;12.77;51.47
20444;BME280;10381;53.730;10.010;2023-04-06T15:08:45;101307.94;;;12.73;51.17
20444;BME280;10381;53.730;10.010;2023-04-06T15:12:45;101302.44;;;12.55;50.44
20444;BME280;10381;53.730;10.010;2023-04-06T15:16:45;101311.47;;;12.43;50.75
20444;BME280;10381;53.730;10.010;2023-04-06T15:20:46;101305.03;;;12.36;49.48
20444;BME280;10381;53.730;10.010;2023-04-06T15:24:46;101297.22;;;12.34;51.52
20444;BME280;10381;53.730;10.010;2023-04-06T15:28:46;101298.97;;;12.84;50.19
20444;BME280;10381;53.730;10.010;2023-04-06T15:32:59;101297.88;;;12.87;50.26
20444;BME280;10381;53.730;10.010;2023-04-06T15:37:04;101295.44;;;12.14;49.82
20444;BME280;10381;53.730;10.010;2023-04-06T15:41:05;101294.22;;;12.68;52.63
20444;BME280;10381;53.730;10.010;2023-04-06T15:45:06;101300.75;;;12.54;49.56
20444;BME280;10381;53.730;10.010;2023-04-06T15:49:06;101293.53;;;12.86;50.69
20444;BME280;10381;53.730;10.010;2023-04-06T15:53:06;101283.50;;;13.18;49.09
20444;BME280;10381;53.730;10.010;2023-04-06T15:57:07;101285.69;;;14.92;46.76
20444;BME280;10381;53.730;10.010;2023-04-06T16:01:15;101293.44;;;15.57;44.85
20444;BME280;10381;53.730;10.010;2023-04-06T16:05:16;101288.22;;;16.34;43.86
20444;BME280;10381;53.730;10.010;2023-04-06T16:09:16;101287.44;;;14.83;42.99
20444;BME280;10381;53.730;10.010;2023-04-06T16:13:17;101289.66;;;16.20;42.66
20444;BME280;10381;53.730;10.010;2023-04-06T16:17:17;101288.56;;;16.47;40.96
20444;BME280;10381;53.730;10.010;2023-04-06T16:21:18;101288.88;;;16.78;41.24
20444;BME280;10381;53.730;10.010;2023-04-06T16:25:18;101286.69;;;13.51;43.31
20444;BME280;10381;53.730;10.010;2023-04-06T16:29:18;101294.53;;;13.04;45.31
20444;BME280;10381;53.730;10.010;2023-04-06T16:33:19;101283.91;;;11.31;49.78
20444;BME280;10381;53.730;10.010;2023-04-06T16:37:21;101289.25;;;10.87;49.86
20444;BME280;10381;53.730;10.010;2023-04-06T16:41:21;101287.50;;;10.65;50.15
20444;BME280;10381;53.730;10.010;2023-04-06T16:45:22;101278.13;;;10.50;50.91
20444;BME280;10381;53.730;10.010;2023-04-06T16:49:22;101278.88;;;10.30;52.17
20444;BME280;10381;53.730;10.010;2023-04-06T16:53:23;101279.44;;;10.22;52.67
20444;BME280;10381;53.730;10.010;2023-04-06T16:57:23;101283.06;;;10.10;52.63
20444;BME280;10381;53.730;10.010;2023-04-06T17:01:28;101274.88;;;9.90;54.20
20444;BME280;10381;53.730;10.010;2023-04-06T17:05:29;101274.50;;;9.72;54.54
20444;BME280;10381;53.730;10.010;2023-04-06T17:09:30;101275.06;;;9.53;55.19
20444;BME280;10381;53.730;10.010;2023-04-06T17:13:31;101288.97;;;9.44;54.70
20444;BME280;10381;53.730;10.010;2023-04-06T17:17:32;101281.81;;;9.22;55.80
20444;BME280;10381;53.730;10.010;2023-04-06T17:21:32;101283.66;;;8.98;57.70
20444;BME280;10381;53.730;10.010;2023-04-06T17:25:33;101282.41;;;8.90;57.01
20444;BME280;10381;53.730;10.010;2023-04-06T17:29:35;101285.72;;;8.81;58.40
20444;BME280;10381;53.730;10.010;2023-04-06T17:33:37;101284.72;;;8.71;59.04
20444;BME280;10381;53.730;10.010;2023-04-06T17:37:37;101289.34;;;8.67;59.92
20444;BME280;10381;53.730;10.010;2023-04-06T17:41:38;101292.94;;;8.42;60.92
20444;BME280;10381;53.730;10.010;2023-04-06T17:45:39;101294.19;;;8.24;62.35
20444;BME280;10381;53.730;10.010;2023-04-06T17:49:39;101289.34;;;8.05;63.21
20444;BME280;10381;53.730;10.010;2023-04-06T17:53:40;101297.69;;;7.86;64.58
20444;BME280;10381;53.730;10.010;2023-04-06T17:57:40;101303.50;;;7.78;65.56
20444;BME280;10381;53.730;10.010;2023-04-06T18:01:42;101307.50;;;7.58;67.22
20444;BME280;10381;53.730;10.010;2023-04-06T18:05:42;101314.44;;;7.59;67.94
20444;BME280;10381;53.730;10.010;2023-04-06T18:09:43;101306.81;;;7.29;70.10
20444;BME280;10381;53.730;10.010;2023-04-06T18:13:44;101315.66;;;7.28;70.44
20444;BME280;10381;53.730;10.010;2023-04-06T18:17:45;101321.91;;;7.00;74.07
20444;BME280;10381;53.730;10.010;2023-04-06T18:21:46;101323.41;;;6.90;74.67
20444;BME280;10381;53.730;10.010;2023-04-06T18:25:46;101318.41;;;6.99;73.28
20444;BME280;10381;53.730;10.010;2023-04-06T18:29:46;101322.28;;;6.94;74.83
20444;BME280;10381;53.730;10.010;2023-04-06T18:33:47;101327.22;;;6.86;74.46
20444;BME280;10381;53.730;10.010;2023-04-06T18:37:47;101331.22;;;6.64;78.75
20444;BME280;10381;53.730;10.010;2023-04-06T18:41:47;101328.88;;;6.59;77.94
20444;BME280;10381;53.730;10.010;2023-04-06T18:45:48;101332.00;;;6.37;81.03
20444;BME280;10381;53.730;10.010;2023-04-06T18:49:48;101334.81;;;6.20;82.50
20444;BME280;10381;53.730;10.010;2023-04-06T18:53:49;101336.88;;;6.15;84.82
20444;BME280;10381;53.730;10.010;2023-04-06T18:57:49;101342.69;;;6.20;85.56
20444;BME280;10381;53.730;10.010;2023-04-06T19:01:50;101344.47;;;6.19;86.60
20444;BME280;10381;53.730;10.010;2023-04-06T19:05:52;101339.13;;;6.21;85.56
20444;BME280;10381;53.730;10.010;2023-04-06T19:09:53;101337.88;;;5.98;87.57
20444;BME280;10381;53.730;10.010;2023-04-06T19:13:53;101342.63;;;5.91;88.93
20444;BME280;10381;53.730;10.010;2023-04-06T19:17:53;101352.44;;;6.04;89.64
20444;BME280;10381;53.730;10.010;2023-04-06T19:21:54;101358.34;;;5.93;87.93
20444;BME280;10381;53.730;10.010;2023-04-06T19:25:54;101357.16;;;6.13;89.51
20444;BME280;10381;53.730;10.010;2023-04-06T19:29:55;101354.50;;;5.98;87.41
20444;BME280;10381;53.730;10.010;2023-04-06T19:33:55;101350.97;;;6.00;88.89
20444;BME280;10381;53.730;10.010;2023-04-06T19:37:56;101355.91;;;5.90;89.44
20444;BME280;10381;53.730;10.010;2023-04-06T19:41:58;101361.97;;;5.76;90.73
20444;BME280;10381;53.730;10.010;2023-04-06T19:45:58;101361.22;;;5.74;94.66
20444;BME280;10381;53.730;10.010;2023-04-06T19:49:58;101361.16;;;5.60;94.58
20444;BME280;10381;53.730;10.010;2023-04-06T19:53:59;101368.88;;;5.63;94.03
20444;BME280;10381;53.730;10.010;2023-04-06T19:58:00;101368.75;;;5.80;93.78
20444;BME280;10381;53.730;10.010;2023-04-06T20:02:01;101367.72;;;5.52;97.07
20444;BME280;10381;53.730;10.010;2023-04-06T20:06:01;101372.47;;;5.46;98.25
20444;BME280;10381;53.730;10.010;2023-04-06T20:10:03;101366.53;;;5.58;98.09
20444;BME280;10381;53.730;10.010;2023-04-06T20:14:03;101368.72;;;5.66;96.11
20444;BME280;10381;53.730;10.010;2023-04-06T20:18:04;101358.19;;;5.66;97.01
20444;BME280;10381;53.730;10.010;2023-04-06T20:22:04;101365.28;;;5.49;100.00
20444;BME280;10381;53.730;10.010;2023-04-06T20:26:07;101364.16;;;5.53;99.47
20444;BME280;10381;53.730;10.010;2023-04-06T20:30:08;101363.25;;;5.69;98.93
20444;BME280;10381;53.730;10.010;2023-04-06T20:34:09;101369.41;;;5.53;100.00
20444;BME280;10381;53.730;10.010;2023-04-06T20:38:09;101371.94;;;5.55;98.27
20444;BME280;10381;53.730;10.010;2023-04-06T20:42:10;101373.50;;;5.43;98.94
20444;BME280;10381;53.730;10.010;2023-04-06T20:46:14;101372.53;;;5.30;100.00